Time;durP1;ratioP1;P1;durP2;ratioP2;P2;SDS_P1;SDS_P2;PMS_P1;PMS_P2;Temp;Humidity;BMP_temperature;BMP_pressure;BME280_temperature;BME280_humidity;BME280_pressure;Samples;Min_cycle;Max_cycle;Signal;HPM_P1;HPM_P2
2022/04/18 00:02:12;;;;;;;3.40;2.40;;;9.90;51.20;;;8.98;51.70;100927.38;5013014;28;20165;-79
2022/04/18 00:04:39;;;;;;;3.65;2.78;;;10.60;51.80;;;8.93;51.09;100933.53;5033865;28;20498;-79
2022/04/18 00:07:06;;;;;;;3.03;2.58;;;9.10;51.10;;;8.88;50.34;100922.19;5016995;28;20053;-79
2022/04/18 00:09:33;;;;;;;2.90;2.40;;;9.60;51.10;;;8.91;50.14;100914.31;5031071;28;20049;-80
2022/04/18 00:12:01;;;;;;;3.67;2.80;;;9.10;51.00;;;8.84;49.98;100919.63;5014327;28;20041;-80
2022/04/18 00:14:29;;;;;;;4.53;2.85;;;9.10;51.00;;;8.83;50.08;100915.25;5031161;28;20145;-79
2022/04/18 00:16:56;;;;;;;3.58;2.95;;;10.10;51.50;;;8.60;50.81;100921.53;5030951;28;20123;-79
2022/04/18 00:19:24;;;;;;;3.67;2.60;;;9.00;51.10;;;8.55;50.57;100920.69;5030776;28;20531;-79
2022/04/18 00:21:51;;;;;;;4.20;3.08;;;8.90;51.00;;;8.48;51.13;100922.47;5031053;28;20045;-79
2022/04/18 00:24:21;;;;;;;5.43;3.08;;;8.80;51.40;;;8.45;51.66;100919.84;5015358;28;20445;-80
2022/04/18 00:26:48;;;;;;;4.70;2.83;;;8.70;51.70;;;8.30;53.76;100916.44;5014659;28;20104;-80
2022/04/18 00:29:15;;;;;;;4.20;3.03;;;9.80;53.40;;;8.30;53.99;100903.34;5030182;28;20045;-79
2022/04/18 00:31:44;;;;;;;4.43;2.92;;;9.80;53.80;;;8.34;53.95;100906.78;5030912;28;20037;-80
2022/04/18 00:34:11;;;;;;;6.93;2.90;;;10.40;54.40;;;8.36;55.45;100910.31;5031077;28;20513;-80
2022/04/18 00:36:38;;;;;;;4.57;2.55;;;9.80;54.70;;;8.27;57.45;100908.56;5030975;28;20034;-80
2022/04/18 00:39:05;;;;;;;4.20;2.90;;;9.40;55.40;;;8.14;61.73;100913.03;5030810;28;20045;-79
2022/04/18 00:41:32;;;;;;;3.60;2.63;;;8.40;56.50;;;7.98;62.91;100913.97;5030915;28;20045;-79
2022/04/18 00:43:59;;;;;;;4.68;3.13;;;8.70;57.30;;;7.89;64.39;100902.69;5030748;28;20136;-81
2022/04/18 00:46:27;;;;;;;5.32;3.00;;;9.90;58.60;;;7.74;64.18;100900.97;5030665;28;20052;-79
2022/04/18 00:48:54;;;;;;;6.20;3.10;;;9.40;59.20;;;7.65;62.11;100898.41;5013084;28;20430;-80
2022/04/18 00:51:24;;;;;;;4.32;2.47;;;8.10;58.20;;;7.68;59.89;100898.38;5030882;28;20128;-79
2022/04/18 00:53:57;;;;;;;4.55;2.80;;;8.00;57.70;;;7.63;60.64;100901.03;5030542;28;20635;-79
2022/04/18 00:56:25;;;;;;;6.50;2.22;;;8.00;58.20;;;7.54;62.06;100894.94;5047972;28;20529;-79
2022/04/18 00:58:53;;;;;;;3.40;2.72;;;7.90;59.20;;;7.69;59.66;100894.88;5032772;28;20049;-79
2022/04/18 01:01:20;;;;;;;5.63;3.03;;;7.90;58.60;;;7.76;62.34;100886.13;5019944;28;20045;-79
2022/04/18 01:03:51;;;;;;;3.35;2.65;;;7.90;60.10;;;7.52;62.21;100890.59;5034391;28;20073;-79
2022/04/18 01:06:19;;;;;;;3.85;2.78;;;9.30;61.30;;;7.64;60.64;100886.16;4997903;28;20537;-79
2022/04/18 01:08:48;;;;;;;3.55;2.65;;;9.50;60.60;;;7.68;60.68;100885.28;5012138;28;20050;-78
2022/04/18 01:11:16;;;;;;;3.13;2.53;;;7.80;60.10;;;7.79;58.81;100874.75;5013094;28;20050;-79
2022/04/18 01:14:02;;;;;;;5.40;2.97;;;7.80;60.10;;;7.87;58.90;100879.97;5014404;28;20057;-78
2022/04/18 01:16:46;;;;;;;4.78;2.75;;;7.90;60.00;;;7.83;59.00;100871.25;5030779;28;20053;-79
2022/04/18 01:19:21;;;;;;;3.40;2.60;;;7.90;60.10;;;7.92;56.23;100872.94;5004796;28;20080;-81
2022/04/18 01:21:59;;;;;;;2.75;2.42;;;8.00;59.20;;;8.02;54.69;100868.53;5024096;28;20045;-81
2022/04/18 01:30:21;;;;;;;6.15;2.90;;;9.50;58.00;;;8.09;52.37;100868.47;5039807;28;20329;-81
2022/04/18 01:32:50;;;;;;;2.92;2.60;;;8.20;57.20;;;8.07;52.27;100859.75;5025411;28;20038;-81
2022/04/18 01:35:17;;;;;;;4.50;3.33;;;8.20;56.70;;;8.09;51.86;100868.47;5032949;28;20059;-80
2022/04/18 01:37:44;;;;;;;4.25;2.88;;;8.10;56.60;;;8.11;51.79;100863.25;5026775;28;20056;-80
2022/04/18 01:40:15;;;;;;;4.63;3.13;;;8.20;56.50;;;8.11;51.93;100873.72;5025797;28;20600;-80
2022/04/18 01:42:42;;;;;;;5.25;2.97;;;8.80;56.60;;;8.08;51.27;100864.13;5044007;28;20049;-80
2022/04/18 01:45:12;;;;;;;3.63;2.75;;;8.20;56.30;;;8.11;51.89;100870.22;5027902;28;20045;-80
2022/04/18 01:47:42;;;;;;;3.47;2.80;;;8.20;56.50;;;8.03;51.44;100852.81;5027952;28;20049;-80
2022/04/18 01:50:09;;;;;;;5.25;2.53;;;8.20;56.30;;;8.09;51.39;100852.75;5056804;28;20053;-80
2022/04/18 01:52:36;;;;;;;4.65;2.40;;;8.20;56.30;;;8.03;51.01;100854.53;5028192;28;20142;-80
2022/04/18 01:55:04;;;;;;;2.85;2.40;;;8.10;56.50;;;8.03;51.74;100851.94;5026842;28;20048;-80
2022/04/18 01:57:31;;;;;;;3.00;2.47;;;8.10;56.30;;;7.97;51.93;100852.84;5044217;28;20299;-80
2022/04/18 01:59:58;;;;;;;3.45;2.65;;;8.10;56.20;;;7.92;51.87;100855.50;5044067;28;20084;-80
2022/04/18 02:02:25;;;;;;;4.57;3.00;;;8.10;56.70;;;7.89;52.30;100849.38;5028226;28;20041;-80
2022/04/18 02:04:53;;;;;;;4.35;3.03;;;9.60;57.60;;;7.78;53.92;100841.59;5029560;28;20080;-80
2022/04/18 02:07:21;;;;;;;4.07;2.90;;;8.00;57.60;;;7.82;54.30;100848.56;5029505;28;20218;-80
2022/04/18 02:09:52;;;;;;;3.20;2.22;;;8.20;57.60;;;7.78;53.83;100846.84;5047599;28;20064;-80
2022/04/18 02:12:19;;;;;;;3.20;2.47;;;8.70;57.80;;;7.75;54.08;100849.47;5012740;28;20797;-81
2022/04/18 02:14:54;;;;;;;2.92;2.47;;;7.80;57.70;;;7.81;53.00;100841.56;5024445;28;20093;-81
2022/04/18 02:17:23;;;;;;;2.78;2.28;;;7.90;57.30;;;7.80;53.44;100845.06;5025652;28;20388;-82
2022/04/18 02:19:52;;;;;;;2.97;2.47;;;7.90;57.80;;;7.72;53.83;100839.88;5009909;28;20137;-81
2022/04/18 02:22:22;;;;;;;3.53;2.42;;;7.90;57.70;;;7.77;53.52;100837.22;5012756;28;20030;-83
2022/04/18 02:24:50;;;;;;;;;;;9.60;58.50;;;7.75;53.49;100847.69;5041753;28;20404;-83
2022/04/18 02:27:17;;;;;;;3.20;2.17;;;7.90;58.00;;;7.62;54.24;100835.53;5024798;28;19935;-82
2022/04/18 02:29:47;;;;;;;5.65;2.97;;;7.80;58.10;;;7.62;54.13;100830.31;5057310;28;20518;-82
2022/04/18 02:35:01;;;;;;;5.78;2.60;;;7.80;58.60;;;7.54;54.88;100837.34;5044632;28;20227;-82
2022/04/18 02:37:28;;;;;;;5.03;2.45;;;7.70;58.30;;;7.51;55.17;100831.22;5060430;28;20072;-81
2022/04/18 02:39:59;;;;;;;3.95;2.85;;;7.70;58.60;;;7.47;54.85;100833.88;5043182;28;20049;-81
2022/04/18 02:42:28;;;;;;;3.70;2.97;;;7.70;58.60;;;7.41;55.28;100831.25;5027969;28;20377;-79
2022/04/18 02:44:55;;;;;;;4.13;2.45;;;7.60;59.10;;;7.45;54.79;100823.38;5044535;28;20049;-81
2022/04/18 02:47:42;;;;;;;3.60;2.38;;;8.30;59.40;;;7.49;55.94;100830.38;5043868;28;20692;-82
2022/04/18 02:50:09;;;;;;;2.97;2.45;;;7.60;59.20;;;7.46;55.96;100827.75;5029731;28;20077;-82
2022/04/18 02:52:37;;;;;;;3.55;2.85;;;8.70;59.90;;;7.35;55.72;100819.06;5033340;28;20064;-81
2022/04/18 02:55:06;;;;;;;4.35;2.83;;;9.10;60.20;;;7.34;56.41;100827.81;5032185;28;20045;-81
2022/04/18 02:57:34;;;;;;;3.50;3.20;;;7.60;60.00;;;7.37;55.46;100819.94;5032431;28;20037;-81
2022/04/18 03:00:03;;;;;;;3.47;2.85;;;7.50;59.60;;;7.26;58.59;100825.22;5031388;28;20045;-81
2022/04/18 03:02:32;;;;;;;5.68;2.72;;;7.50;60.60;;;7.22;56.18;100821.72;5032407;28;20045;-81
2022/04/18 03:05:00;;;;;;;3.42;2.53;;;7.50;60.50;;;7.28;57.82;100823.47;5012522;28;20037;-80
2022/04/18 03:07:27;;;;;;;4.38;2.92;;;7.50;60.90;;;7.23;57.96;100807.75;4980369;28;20041;-82
2022/04/18 03:09:54;;;;;;;4.30;2.63;;;8.50;61.70;;;7.22;58.12;100810.38;4995342;28;20075;-81
2022/04/18 03:12:23;;;;;;;3.40;2.67;;;7.40;61.40;;;7.24;57.19;100804.28;4996401;28;20140;-82
2022/04/18 03:14:50;;;;;;;4.47;3.05;;;7.40;60.70;;;7.16;58.35;100810.41;4979955;28;20052;-82
2022/04/18 03:17:18;;;;;;;3.50;2.95;;;8.40;62.00;;;7.21;57.70;100808.63;4995442;28;20132;-80
2022/04/18 03:19:45;;;;;;;3.22;2.63;;;8.70;62.00;;;7.11;59.40;100806.94;4995200;28;20524;-80
2022/04/18 03:22:12;;;;;;;3.60;2.65;;;8.60;62.90;;;7.13;57.77;100805.19;5011993;28;20080;-80
2022/04/18 03:24:45;;;;;;;5.43;3.13;;;7.30;61.60;;;7.02;58.23;100806.06;4996128;28;20054;-80
2022/04/18 03:27:16;;;;;;;3.78;2.83;;;8.90;62.80;;;7.07;58.52;100803.44;4996413;28;20136;-82
2022/04/18 03:29:43;;;;;;;8.43;3.40;;;9.30;63.50;;;7.03;59.67;100797.34;4998953;28;20056;-81
2022/04/18 03:32:16;;;;;;;4.25;3.10;;;7.20;62.40;;;7.01;59.25;100796.47;4986541;28;20056;-81
2022/04/18 03:34:43;;;;;;;3.95;2.88;;;8.50;63.40;;;6.99;60.33;100798.25;5009298;28;20045;-82
2022/04/18 03:40:05;;;;;;;3.50;3.13;;;7.50;62.90;;;6.97;59.29;100789.53;5012715;28;20171;-82
2022/04/18 03:42:32;;;;;;;5.40;3.28;;;7.10;63.20;;;6.90;62.73;100786.06;5034677;28;20049;-80
2022/04/18 03:45:06;;;;;;;4.50;3.30;;;7.10;64.80;;;7.01;60.40;100787.75;5020690;28;20527;-80
2022/04/18 03:47:33;;;;;;;4.22;3.25;;;7.10;63.50;;;7.00;58.38;100786.91;5034506;28;20045;-80
2022/04/18 03:50:02;;;;;;;5.38;3.30;;;7.10;62.80;;;6.91;61.56;100790.41;5017159;28;20045;-80
2022/04/18 03:52:32;;;;;;;4.07;3.35;;;7.10;64.60;;;6.88;58.62;100771.22;5019853;28;20053;-82
2022/04/18 03:55:11;;;;;;;6.97;2.97;;;8.80;64.60;;;6.91;60.11;100779.06;5035804;28;20041;-82
2022/04/18 03:57:39;;;;;;;3.75;2.95;;;7.10;63.60;;;6.89;59.49;100776.47;5030242;28;20038;-81
2022/04/18 04:00:09;;;;;;;4.07;3.00;;;7.50;63.60;;;6.92;58.21;100779.06;5000350;28;20038;-80
2022/04/18 04:02:39;;;;;;;4.97;3.33;;;7.10;63.20;;;6.90;58.40;100782.53;5024852;28;20073;-80
2022/04/18 04:05:09;;;;;;;4.82;2.97;;;8.90;64.00;;;6.89;58.42;100783.41;5019879;28;20041;-80
2022/04/18 04:07:36;;;;;;;4.43;3.17;;;8.40;64.50;;;6.85;59.47;100785.16;5046719;28;20093;-80
2022/04/18 04:10:17;;;;;;;6.20;3.42;;;7.00;63.80;;;6.81;59.62;100784.31;5048400;28;20041;-80
2022/04/18 04:12:45;;;;;;;5.05;3.22;;;7.00;64.40;;;6.81;57.97;100784.31;5060960;28;20201;-80
2022/04/18 04:15:32;;;;;;;5.70;3.75;;;9.20;64.60;;;6.77;59.14;100777.34;5046377;28;20053;-80
2022/04/18 04:18:05;;;;;;;4.82;3.53;;;8.30;64.70;;;6.81;58.85;100778.22;5047316;28;20157;-80
2022/04/18 04:20:32;;;;;;;6.43;3.28;;;8.80;64.60;;;6.71;61.45;100777.34;5029495;28;20045;-80
2022/04/18 04:23:00;;;;;;;4.40;3.50;;;7.20;64.90;;;6.68;59.82;100772.13;5063244;28;20047;-80
2022/04/18 04:25:59;;;;;;;5.68;4.00;;;6.90;64.30;;;6.71;59.17;100776.47;5003340;28;20057;-81
2022/04/18 04:28:42;;;;;;;5.05;3.33;;;6.90;64.00;;;6.69;58.20;100763.41;5048224;28;20047;-79
2022/04/18 04:31:16;;;;;;;4.45;3.20;;;8.80;64.70;;;6.72;58.71;100779.09;5030803;28;20045;-79
2022/04/18 04:33:44;;;;;;;6.38;3.97;;;8.80;65.00;;;6.75;58.30;100773.00;5045592;28;20118;-80
2022/04/18 04:36:15;;;;;;;4.75;3.85;;;6.90;64.00;;;6.69;58.19;100778.22;5045970;28;20060;-80
2022/04/18 04:38:46;;;;;;;4.40;3.58;;;6.90;63.60;;;6.73;57.04;100773.00;5028708;28;20077;-80
2022/04/18 04:41:25;;;;;;;5.88;4.25;;;6.90;63.20;;;6.70;57.84;100769.50;5030854;28;20076;-81
2022/04/18 04:43:57;;;;;;;5.05;3.80;;;6.90;63.20;;;6.69;58.08;100768.66;5045150;28;20782;-80
2022/04/18 04:46:44;;;;;;;8.65;4.70;;;8.70;64.50;;;6.64;58.70;100767.78;5045264;28;20056;-80
2022/04/18 04:49:16;;;;;;;6.15;4.22;;;6.80;63.10;;;6.69;56.96;100773.00;5060114;28;20068;-80
2022/04/18 04:51:59;;;;;;;5.43;4.30;;;7.20;63.20;;;6.61;58.48;100767.78;5062887;28;20045;-80
2022/04/18 04:54:26;;;;;;;7.47;4.70;;;6.80;63.70;;;6.65;58.30;100778.22;5037256;28;20496;-80
2022/04/18 04:56:54;;;;;;;6.13;4.40;;;8.20;65.00;;;6.66;57.76;100768.66;5050259;28;20120;-82
2022/04/18 04:59:26;;;;;;;5.13;4.18;;;6.90;63.80;;;6.63;58.54;100763.41;5051775;28;20072;-83
2022/04/18 05:01:53;;;;;;;5.13;3.95;;;7.20;64.10;;;6.61;58.58;100770.38;5033267;28;20076;-80
2022/04/18 05:04:27;;;;;;;5.70;3.95;;;6.80;64.50;;;6.69;58.63;100770.38;5033807;28;20437;-82
2022/04/18 05:06:57;;;;;;;4.93;3.75;;;6.70;64.00;;;6.70;58.28;100775.63;5001653;28;20115;-80
2022/04/18 05:09:38;;;;;;;5.43;3.95;;;6.90;63.70;;;6.73;56.99;100773.00;5031703;28;20056;-80
2022/04/18 05:12:07;;;;;;;5.30;4.03;;;6.90;63.40;;;6.80;56.31;100776.47;5015832;28;20099;-81
2022/04/18 05:14:35;;;;;;;4.33;3.40;;;6.90;63.10;;;6.73;57.48;100769.53;5015396;28;20051;-80
2022/04/18 05:17:07;;;;;;;5.90;3.78;;;8.40;65.20;;;6.83;56.65;100776.44;5016900;28;20292;-79
2022/04/18 05:19:38;;;;;;;7.05;3.88;;;7.10;63.80;;;6.78;57.75;100778.22;5000143;28;20071;-82
2022/04/18 05:22:17;;;;;;;7.57;3.95;;;8.80;65.60;;;6.76;57.23;100766.88;5002056;28;20085;-79
2022/04/18 05:24:45;;;;;;;4.53;3.53;;;8.60;65.10;;;6.87;55.55;100785.19;5015524;28;20512;-80
2022/04/18 05:27:15;;;;;;;;;;;9.00;64.60;;;6.98;56.15;100783.41;5017656;28;20081;-79
2022/04/18 05:29:45;;;;;;;6.43;3.50;;;8.30;63.90;;;6.91;55.42;100774.72;5000221;28;19931;-81
2022/04/18 05:32:15;;;;;;;5.15;3.80;;;9.10;65.00;;;6.98;55.81;100780.81;5019672;28;20418;-77
2022/04/18 05:34:50;;;;;;;5.28;3.67;;;8.40;63.70;;;7.02;54.73;100789.50;5061316;28;20069;-79
2022/04/18 05:37:26;;;;;;;5.05;3.80;;;7.10;62.50;;;7.03;55.83;100786.88;5014485;28;20057;-77
2022/04/18 05:40:33;;;;;;;5.75;3.35;;;7.10;63.10;;;7.08;55.02;100787.72;5031982;28;20045;-78
2022/04/18 05:43:03;;;;;;;4.53;2.77;;;7.20;62.60;;;7.16;55.44;100784.22;5024531;28;20041;-78
2022/04/18 05:45:33;;;;;;;6.20;3.78;;;7.20;62.50;;;7.20;55.63;100788.56;5041970;28;20049;-78
2022/04/18 05:48:12;;;;;;;5.25;3.92;;;7.20;63.50;;;7.28;54.44;100788.53;5021908;28;20231;-80
2022/04/18 05:50:47;;;;;;;5.20;4.35;;;7.30;62.90;;;7.33;56.05;100785.03;5032648;28;20483;-79
2022/04/18 05:53:28;;;;;;;4.38;3.20;;;7.30;63.20;;;7.43;54.65;100785.88;5032012;28;20049;-78
2022/04/18 05:56:05;;;;;;;5.10;3.50;;;7.40;62.80;;;7.52;54.83;100795.44;5031445;28;20066;-80
2022/04/18 05:58:44;;;;;;;5.28;3.92;;;7.50;63.30;;;7.58;54.75;100791.91;5032947;28;20061;-79
2022/04/18 06:01:40;;;;;;;5.15;3.50;;;8.60;63.90;;;7.59;54.06;100783.19;5013043;28;20413;-75
2022/04/18 06:04:18;;;;;;;5.95;3.92;;;7.80;62.90;;;7.68;53.22;100785.75;5021726;28;20132;-78
2022/04/18 06:06:54;;;;;;;4.82;3.38;;;7.70;62.70;;;7.80;53.11;100790.06;5038421;28;20453;-79
2022/04/18 06:09:21;;;;;;;5.10;3.72;;;7.80;62.40;;;7.93;53.28;100788.22;5034183;28;20053;-79
2022/04/18 06:11:48;;;;;;;6.18;3.92;;;7.90;62.60;;;7.93;52.03;100790.84;5052630;28;20041;-79
2022/04/18 06:14:19;;;;;;;5.18;4.10;;;8.70;62.40;;;8.01;51.78;100783.81;5021398;28;20052;-78
2022/04/18 06:16:52;;;;;;;5.55;3.50;;;8.00;61.40;;;8.09;51.62;100789.00;5036850;28;20052;-79
2022/04/18 06:19:22;;;;;;;6.35;3.90;;;8.30;61.50;;;8.14;51.49;100786.34;5037339;28;20457;-79
2022/04/18 06:21:49;;;;;;;5.32;3.65;;;8.10;61.30;;;8.16;51.82;100780.19;5054806;28;20053;-77
2022/04/18 06:24:18;;;;;;;4.78;3.80;;;8.20;61.60;;;8.28;51.03;100794.09;5037771;28;20114;-79
2022/04/18 06:27:04;;;;;;;5.57;3.40;;;8.60;61.50;;;8.36;51.02;100790.53;5025440;28;20129;-79
2022/04/18 06:29:34;;;;;;;;;;;8.30;61.30;;;8.44;50.66;100800.13;5040221;28;20090;-79
2022/04/18 06:32:02;;;;;;;6.45;3.28;;;8.40;61.00;;;8.51;50.23;100793.94;5039427;28;19924;-78
2022/04/18 06:34:30;;;;;;;5.57;3.97;;;8.40;60.80;;;8.57;50.03;100800.91;5045059;28;20117;-77
2022/04/18 06:37:09;;;;;;;5.63;4.20;;;8.50;60.40;;;8.64;49.21;100797.31;5007963;28;20131;-77
2022/04/18 06:39:46;;;;;;;4.85;3.55;;;8.60;60.20;;;8.78;50.07;100795.44;5040266;28;20525;-77
2022/04/18 06:42:18;;;;;;;6.05;3.80;;;9.10;61.10;;;8.85;49.72;100798.88;5023498;28;20068;-77
2022/04/18 06:44:53;;;;;;;4.72;3.83;;;8.70;60.80;;;8.93;49.41;100804.06;5023151;28;20042;-75
2022/04/18 06:47:21;;;;;;;6.25;4.53;;;8.80;60.40;;;8.92;48.62;100794.44;5024125;28;20788;-75
2022/04/18 06:50:11;;;;;;;6.07;4.10;;;9.50;60.40;;;9.00;48.58;100797.00;5034273;28;20100;-75
2022/04/18 06:52:56;;;;;;;5.60;3.60;;;8.90;59.50;;;9.04;48.24;100794.31;5009500;28;20061;-76
2022/04/18 06:58:38;;;;;;;6.63;3.67;;;9.00;59.30;;;9.23;48.03;100796.72;5037054;28;20057;-74
2022/04/18 07:01:07;;;;;;;4.68;3.40;;;9.40;59.60;;;9.30;47.48;100798.41;5023281;28;20473;-75
2022/04/18 07:03:34;;;;;;;5.90;3.92;;;9.20;58.80;;;9.40;47.39;100786.03;5024024;28;20137;-75
2022/04/18 07:06:01;;;;;;;4.80;3.80;;;9.30;58.90;;;9.44;46.64;100790.34;5027011;28;20065;-75
2022/04/18 07:08:28;;;;;;;6.00;3.88;;;9.30;58.30;;;9.52;47.01;100787.63;5027714;28;20136;-74
2022/04/18 07:11:08;;;;;;;6.80;3.83;;;10.00;58.70;;;9.59;46.07;100789.28;5046138;28;20099;-74
2022/04/18 07:13:35;;;;;;;5.60;3.25;;;10.00;58.30;;;9.66;45.92;100790.06;5011731;28;20172;-74
2022/04/18 07:16:02;;;;;;;7.35;3.92;;;9.50;58.00;;;9.72;46.55;100787.38;5026991;28;20695;-74
2022/04/18 07:18:30;;;;;;;4.93;3.95;;;9.60;58.30;;;9.77;45.99;100782.06;5027397;28;20053;-74
2022/04/18 07:20:58;;;;;;;8.27;4.10;;;9.60;57.80;;;9.87;46.08;100786.28;5043196;28;20045;-74
2022/04/18 07:23:25;;;;;;;5.50;3.88;;;9.70;57.80;;;9.93;45.50;100780.94;5043489;28;20053;-74
2022/04/18 07:25:57;;;;;;;5.65;4.25;;;9.80;57.60;;;10.01;45.42;100785.22;5010751;28;20045;-74
2022/04/18 07:28:31;;;;;;;5.88;3.60;;;9.90;57.50;;;10.07;45.46;100772.84;5011421;28;20153;-74
2022/04/18 07:31:00;;;;;;;6.95;3.83;;;9.90;57.50;;;10.19;45.48;100777.03;5026535;28;20052;-74
2022/04/18 07:33:27;;;;;;;5.70;3.30;;;10.00;57.60;;;10.26;45.24;100774.31;5043252;28;20128;-74
2022/04/18 07:35:58;;;;;;;4.82;3.67;;;10.00;57.40;;;10.33;44.77;100768.94;5043356;28;20096;-74
2022/04/18 07:41:11;;;;;;;8.00;3.38;;;10.30;56.80;;;10.46;44.15;100777.50;5016645;28;20037;-74
2022/04/18 07:43:43;;;;;;;5.55;3.95;;;10.60;56.60;;;10.58;43.69;100781.69;5015014;28;20232;-75
2022/04/18 07:46:12;;;;;;;6.90;4.20;;;10.70;56.30;;;10.68;43.46;100771.84;5030136;28;20054;-74
2022/04/18 07:48:40;;;;;;;4.65;3.40;;;10.40;55.90;;;10.76;43.61;100779.63;5014219;28;20056;-74
2022/04/18 07:53:53;;;;;;;4.32;3.22;;;10.60;56.50;;;11.02;43.69;100778.28;5029856;28;20041;-75
2022/04/18 07:56:21;;;;;;;5.32;3.42;;;10.70;56.30;;;11.05;43.03;100781.72;5013627;28;20099;-74
2022/04/18 07:58:49;;;;;;;7.60;4.18;;;10.80;55.90;;;11.11;43.07;100780.75;5030032;28;20046;-74
2022/04/18 08:01:24;;;;;;;6.43;3.53;;;10.90;55.70;;;11.24;43.15;100791.88;5031336;28;20069;-74
2022/04/18 08:03:57;;;;;;;5.03;3.40;;;11.00;55.60;;;11.29;42.39;100779.47;5030224;28;20045;-74
2022/04/18 08:06:29;;;;;;;7.28;3.60;;;11.00;55.20;;;11.41;42.26;100781.03;5030771;28;20056;-75
2022/04/18 08:09:06;;;;;;;6.55;4.00;;;11.10;55.00;;;11.54;42.33;100793.91;5030193;28;20046;-74
2022/04/18 08:11:33;;;;;;;5.53;4.22;;;11.30;55.10;;;11.64;42.39;100784.91;5030654;28;20091;-75
2022/04/18 08:14:01;;;;;;;5.72;3.95;;;11.30;55.20;;;11.69;41.73;100784.81;5030838;28;20071;-75
2022/04/18 08:16:51;;;;;;;5.32;3.80;;;11.40;54.70;;;11.83;42.28;100780.09;5027912;28;20075;-75
2022/04/18 08:19:26;;;;;;;4.63;3.83;;;11.50;55.20;;;11.90;41.61;100778.19;5030637;28;20041;-75
2022/04/18 08:21:54;;;;;;;5.22;3.40;;;11.60;54.80;;;11.98;41.62;100789.41;5031799;28;20457;-76
2022/04/18 08:24:21;;;;;;;5.13;4.15;;;11.60;54.80;;;12.00;41.40;100781.50;5030764;28;20049;-75
2022/04/18 08:27:08;;;;;;;4.88;3.63;;;11.70;54.50;;;12.08;42.11;100789.25;5032467;28;20188;-75
2022/04/18 08:29:46;;;;;;;7.68;3.60;;;11.90;54.80;;;12.17;41.89;100778.47;5031390;28;20060;-76
2022/04/18 08:32:37;;;;;;;6.40;4.03;;;11.80;54.90;;;12.23;41.39;100788.00;5033826;28;20438;-75
2022/04/18 08:35:06;;;;;;;6.40;4.20;;;11.90;54.30;;;12.30;41.37;100784.34;5029160;28;20417;-75
2022/04/18 08:37:34;;;;;;;6.60;4.25;;;11.90;54.40;;;12.40;41.21;100780.53;5028710;28;20091;-77
2022/04/18 08:40:18;;;;;;;4.07;3.20;;;12.20;54.50;;;12.51;40.71;100779.41;5025533;28;20049;-76
2022/04/18 08:42:53;;;;;;;5.03;4.13;;;12.20;54.00;;;12.59;40.56;100778.31;5029362;28;20053;-75
2022/04/18 08:45:24;;;;;;;5.93;3.78;;;12.30;53.90;;;12.71;41.40;100769.19;5035002;28;20076;-75
2022/04/18 08:53:30;;;;;;;5.57;3.83;;;12.60;53.20;;;13.07;39.75;100765.59;5026073;28;20124;-75
2022/04/18 08:55:59;;;;;;;7.88;4.07;;;12.70;53.20;;;13.15;39.96;100768.91;5029025;28;20126;-76
2022/04/18 08:58:30;;;;;;;4.72;3.53;;;12.90;53.50;;;13.18;39.79;100763.53;5045123;28;20053;-76
2022/04/18 09:01:00;;;;;;;5.68;3.72;;;12.90;53.20;;;13.32;39.37;100763.09;5011875;28;20056;-75
2022/04/18 09:03:54;;;;;;;4.97;3.80;;;13.20;52.80;;;13.39;39.20;100765.59;5028980;28;20186;-74
2022/04/18 09:06:30;;;;;;;4.15;3.53;;;13.00;52.70;;;13.51;39.30;100767.91;5013707;28;20049;-75
2022/04/18 09:09:07;;;;;;;4.60;3.65;;;13.00;52.60;;;13.53;39.05;100762.56;5028973;28;20876;-75
2022/04/18 09:11:37;;;;;;;4.82;3.58;;;13.20;52.50;;;13.64;38.94;100772.81;5032137;28;20787;-75
2022/04/18 09:14:15;;;;;;;3.67;3.22;;;13.30;52.40;;;13.72;38.96;100766.38;5027306;28;20041;-75
2022/04/18 09:16:48;;;;;;;4.75;3.50;;;13.40;52.30;;;13.74;37.67;100764.56;5044293;28;20046;-75
2022/04/18 09:19:38;;;;;;;4.60;3.50;;;13.40;51.20;;;13.86;38.59;100767.72;5022023;28;20061;-75
2022/04/18 09:22:13;;;;;;;5.40;3.83;;;13.60;52.20;;;13.93;37.96;100763.09;5027956;28;20047;-75
2022/04/18 09:24:47;;;;;;;7.07;3.95;;;14.20;51.90;;;13.94;37.54;100762.19;5012348;28;20052;-75
2022/04/18 09:27:29;;;;;;;6.18;3.40;;;13.60;51.00;;;14.02;37.82;100754.88;5044640;28;20111;-75
2022/04/18 09:30:09;;;;;;;5.22;3.33;;;13.70;51.40;;;14.12;37.12;100742.22;5026874;28;20714;-75
2022/04/18 09:33:08;;;;;;;6.90;3.33;;;13.70;50.90;;;14.24;38.26;100743.59;5012840;28;20449;-75
2022/04/18 09:35:45;;;;;;;4.35;2.80;;;13.80;51.40;;;14.45;36.87;100745.53;5029163;28;20057;-75
2022/04/18 09:38:18;;;;;;;4.80;2.90;;;14.00;50.50;;;14.52;36.32;100745.31;5028632;28;20053;-75
2022/04/18 09:40:54;;;;;;;6.28;3.25;;;14.10;49.90;;;14.57;36.59;100740.69;5027893;28;20073;-75
2022/04/18 09:43:45;;;;;;;6.80;3.50;;;14.20;50.00;;;14.68;36.69;100733.25;5043852;28;20060;-75
2022/04/18 09:46:21;;;;;;;5.18;3.20;;;14.30;50.30;;;14.81;36.18;100738.16;5050508;28;20041;-75
2022/04/18 09:49:04;;;;;;;6.70;3.25;;;14.30;50.00;;;14.85;35.41;100739.75;5036411;28;20071;-76
2022/04/18 09:51:37;;;;;;;4.35;3.15;;;14.50;49.40;;;14.95;35.39;100725.28;5028289;28;20092;-75
2022/04/18 09:54:13;;;;;;;3.95;3.08;;;14.50;49.10;;;15.03;35.58;100730.28;5029494;28;20077;-75
2022/04/18 09:56:51;;;;;;;6.30;3.50;;;14.60;49.00;;;15.15;34.95;100726.31;5027373;28;20033;-75
2022/04/18 09:59:19;;;;;;;5.85;3.35;;;14.80;48.50;;;15.23;34.83;100726.03;5027399;28;20500;-75
2022/04/18 10:01:47;;;;;;;4.65;3.08;;;14.80;48.50;;;15.34;35.00;100723.84;5022910;28;20140;-75
2022/04/18 10:04:15;;;;;;;4.45;3.20;;;14.80;48.70;;;15.37;35.09;100722.84;5010590;28;20089;-75
2022/04/18 10:06:45;;;;;;;5.15;3.30;;;14.90;48.70;;;15.45;34.61;100723.41;5028595;28;20037;-76
2022/04/18 10:09:13;;;;;;;4.47;3.33;;;15.00;48.80;;;15.63;34.20;100729.81;5027787;28;20056;-75
2022/04/18 10:11:40;;;;;;;4.57;3.40;;;15.20;48.10;;;15.65;34.45;100720.00;5029456;28;20506;-76
2022/04/18 10:14:25;;;;;;;7.28;3.80;;;15.20;48.00;;;15.82;32.51;100721.94;5047147;28;20033;-75
2022/04/18 10:16:57;;;;;;;5.53;3.92;;;15.40;46.40;;;15.99;32.57;100718.66;5034336;28;20080;-75
2022/04/18 10:19:49;;;;;;;5.10;3.97;;;15.50;46.40;;;16.11;33.02;100708.47;5025914;28;20057;-76
2022/04/18 10:22:50;;;;;;;5.05;3.33;;;15.70;46.70;;;16.20;33.43;100716.03;5040585;28;20120;-75
2022/04/18 10:26:13;;;;;;;4.68;3.40;;;15.80;47.30;;;16.35;32.13;100706.56;5033292;28;20125;-75
2022/04/18 10:28:45;;;;;;;6.75;3.25;;;15.90;46.20;;;16.48;32.58;100704.22;5015340;28;20589;-76
2022/04/18 10:31:24;;;;;;;4.82;3.95;;;16.00;46.50;;;16.44;32.26;100702.66;5026868;28;20038;-76
2022/04/18 10:33:51;;;;;;;4.32;3.35;;;16.10;45.90;;;16.67;32.75;100701.63;5036386;28;20037;-77
2022/04/18 10:36:33;;;;;;;5.07;3.95;;;16.10;46.50;;;16.73;32.76;100693.38;5043688;28;20047;-76
2022/04/18 10:39:06;;;;;;;4.13;3.40;;;16.20;46.20;;;16.73;31.86;100684.56;5047455;28;20072;-77
2022/04/18 10:41:45;;;;;;;5.68;3.47;;;16.30;45.50;;;16.84;31.80;100684.91;5029453;28;20756;-76
2022/04/18 10:44:17;;;;;;;5.32;3.80;;;16.40;45.50;;;17.06;31.60;100694.63;5046188;28;20048;-76
2022/04/18 10:46:55;;;;;;;6.75;4.55;;;16.50;45.70;;;16.98;31.71;100680.78;5030616;28;20119;-76
2022/04/18 10:49:27;;;;;;;7.20;3.58;;;16.60;45.20;;;17.08;32.37;100675.91;5045472;28;20433;-77
2022/04/18 10:51:54;;;;;;;5.47;3.80;;;16.60;45.90;;;17.11;32.05;100681.97;5047035;28;20048;-76
2022/04/18 10:54:25;;;;;;;4.88;3.70;;;16.60;45.60;;;17.15;31.20;100672.91;5027086;28;20060;-77
2022/04/18 10:57:07;;;;;;;5.07;3.22;;;16.70;45.00;;;17.03;31.64;100680.59;5027589;28;20046;-77
2022/04/18 10:59:46;;;;;;;3.75;3.08;;;16.70;45.00;;;17.12;31.78;100667.75;5027158;28;20124;-76
2022/04/18 11:02:42;;;;;;;4.22;3.22;;;16.70;45.20;;;17.39;30.83;100671.81;5025799;28;20052;-77
2022/04/18 11:05:09;;;;;;;6.03;3.55;;;16.80;44.70;;;17.44;30.94;100673.31;5030868;28;20041;-77
2022/04/18 11:07:41;;;;;;;5.50;3.72;;;17.10;44.60;;;17.58;30.67;100659.38;5046797;28;20048;-76
2022/04/18 11:10:19;;;;;;;5.85;3.92;;;17.00;44.30;;;17.61;30.93;100662.81;5029849;28;20041;-76
2022/04/18 11:13:00;;;;;;;5.10;3.83;;;17.10;44.50;;;17.53;31.32;100645.41;5037906;28;20096;-77